Time;durP1;ratioP1;P1;durP2;ratioP2;P2;SDS_P1;SDS_P2;PMS_P1;PMS_P2;Temp;Humidity;BMP_temperature;BMP_pressure;BME280_temperature;BME280_humidity;BME280_pressure;Samples;Min_cycle;Max_cycle;Signal;HPM_P1;HPM_P2
2022/11/02 00:01:43;;;;;;;13.40;2.05;;;12.50;99.90;;;;;;7333343;32;20201;-58
2022/11/02 00:05:45;;;;;;;8.65;1.67;;;12.60;99.90;;;;;;7348506;32;20455;-58
2022/11/02 00:09:46;;;;;;;7.28;1.73;;;12.50;99.90;;;;;;7336493;32;20115;-59
2022/11/02 00:13:48;;;;;;;15.07;2.30;;;12.50;99.90;;;;;;7344612;32;20448;-58
2022/11/02 00:17:55;;;;;;;10.90;1.62;;;12.60;99.90;;;;;;7339759;32;20125;-58
2022/11/02 00:21:58;;;;;;;9.32;1.77;;;12.50;99.90;;;;;;7344688;32;20108;-58
2022/11/02 00:26:01;;;;;;;11.35;1.85;;;12.50;99.90;;;;;;7344970;32;20467;-58
2022/11/02 00:30:04;;;;;;;10.65;2.08;;;12.50;99.90;;;;;;7342796;32;20527;-59
2022/11/02 00:34:06;;;;;;;8.60;1.52;;;12.30;99.90;;;;;;7346685;32;20117;-58
2022/11/02 00:38:08;;;;;;;14.25;2.00;;;12.40;99.90;;;;;;7341935;32;20138;-59
2022/11/02 00:42:10;;;;;;;14.48;1.92;;;12.30;99.90;;;;;;7347141;32;20181;-58
2022/11/02 00:46:13;;;;;;;13.45;1.92;;;12.40;99.90;;;;;;7336379;32;20125;-58
2022/11/02 00:50:15;;;;;;;9.77;1.60;;;12.40;99.90;;;;;;7337792;32;20216;-58
2022/11/02 00:54:17;;;;;;;13.32;1.62;;;12.40;99.90;;;;;;7337003;32;20135;-58
2022/11/02 00:58:19;;;;;;;14.27;1.83;;;12.50;99.90;;;;;;7336426;32;20126;-58
2022/11/02 01:02:20;;;;;;;14.43;2.22;;;12.50;99.90;;;;;;7340121;32;20107;-58
2022/11/02 01:06:22;;;;;;;9.55;2.00;;;12.50;99.90;;;;;;7334123;32;20133;-58
2022/11/02 01:10:25;;;;;;;11.02;1.90;;;12.40;99.90;;;;;;7348166;32;20103;-58
2022/11/02 01:14:26;;;;;;;12.37;1.62;;;12.50;99.90;;;;;;7333460;32;20187;-58
2022/11/02 01:18:28;;;;;;;6.72;1.80;;;12.50;99.90;;;;;;7333528;32;20108;-57
2022/11/02 01:22:30;;;;;;;9.13;1.55;;;12.50;99.90;;;;;;7348626;32;20127;-57
2022/11/02 01:26:32;;;;;;;9.25;1.48;;;12.50;99.90;;;;;;7347014;32;20550;-57
2022/11/02 01:30:36;;;;;;;9.32;1.50;;;12.40;99.90;;;;;;7343096;32;20198;-57
2022/11/02 01:34:38;;;;;;;7.62;1.33;;;12.50;99.90;;;;;;7350773;32;20137;-57
2022/11/02 01:38:40;;;;;;;6.50;1.25;;;12.70;99.90;;;;;;7343280;32;20100;-57
2022/11/02 01:42:42;;;;;;;12.88;1.85;;;12.90;99.90;;;;;;7351737;32;20798;-57
2022/11/02 01:46:45;;;;;;;12.68;1.70;;;13.00;99.90;;;;;;7350009;32;20099;-57
2022/11/02 01:50:48;;;;;;;9.38;1.65;;;13.10;99.90;;;;;;7339888;32;20673;-57
2022/11/02 01:55:03;;;;;;;11.30;1.48;;;13.20;99.90;;;;;;7343180;32;20099;-57
2022/11/02 01:59:13;;;;;;;7.87;1.60;;;13.30;99.90;;;;;;7350158;32;20807;-57
2022/11/02 02:03:17;;;;;;;15.48;2.03;;;13.30;99.90;;;;;;7351021;32;20441;-57
2022/11/02 02:07:19;;;;;;;11.65;1.55;;;13.40;99.90;;;;;;7348881;32;20103;-57
2022/11/02 02:11:36;;;;;;;16.83;1.80;;;13.30;99.90;;;;;;7346496;32;20221;-58
2022/11/02 02:15:59;;;;;;;11.98;1.60;;;13.20;99.90;;;;;;7346720;32;20749;-57
2022/11/02 02:20:13;;;;;;;7.10;1.73;;;13.20;99.90;;;;;;7340957;32;20230;-57
2022/11/02 02:24:24;;;;;;;11.43;1.52;;;13.20;99.90;;;;;;7339364;32;20204;-57
2022/11/02 02:28:42;;;;;;;12.23;1.70;;;13.10;99.90;;;;;;7346333;32;20118;-57
2022/11/02 02:33:00;;;;;;;8.35;1.70;;;13.00;99.90;;;;;;7339495;32;20130;-57
2022/11/02 02:37:25;;;;;;;11.38;1.67;;;13.20;99.90;;;;;;7347163;32;20864;-57
2022/11/02 02:41:43;;;;;;;11.25;1.70;;;13.20;99.90;;;;;;7337722;32;20107;-57
2022/11/02 02:46:00;;;;;;;11.32;1.67;;;13.30;99.90;;;;;;7340113;32;20146;-57
2022/11/02 02:50:20;;;;;;;8.90;1.70;;;13.20;99.90;;;;;;7339847;32;20266;-57
2022/11/02 02:54:39;;;;;;;10.57;1.90;;;13.30;99.90;;;;;;7348109;32;20198;-57
2022/11/02 02:58:54;;;;;;;9.85;1.40;;;13.20;99.90;;;;;;7345383;32;20190;-57
2022/11/02 03:03:00;;;;;;;9.73;1.48;;;13.10;99.90;;;;;;7337711;32;20126;-57
2022/11/02 03:07:02;;;;;;;9.68;1.48;;;13.00;99.90;;;;;;7346544;32;20131;-57
2022/11/02 03:11:19;;;;;;;10.93;1.62;;;13.00;99.90;;;;;;7342796;32;20095;-57
2022/11/02 03:15:29;;;;;;;7.10;1.73;;;12.90;99.90;;;;;;7350299;32;20210;-57
2022/11/02 03:19:39;;;;;;;11.00;2.03;;;12.90;99.90;;;;;;7347506;32;20197;-57
2022/11/02 03:23:56;;;;;;;6.62;1.48;;;12.80;99.90;;;;;;7350584;32;20102;-57
2022/11/02 03:28:13;;;;;;;10.90;2.12;;;12.80;99.90;;;;;;7353951;32;20252;-57
2022/11/02 03:32:31;;;;;;;5.87;1.30;;;12.70;99.90;;;;;;7348490;32;20124;-57
2022/11/02 03:36:39;;;;;;;8.38;1.83;;;12.80;99.90;;;;;;7350201;32;20121;-57
2022/11/02 03:40:46;;;;;;;6.57;1.67;;;12.70;99.90;;;;;;7341874;32;20125;-57
2022/11/02 03:44:50;;;;;;;;;;;12.70;99.90;;;;;;7340081;32;20218;-57
2022/11/02 03:48:54;;;;;;;10.63;1.70;;;12.80;99.90;;;;;;7345793;32;20104;-57
2022/11/02 03:53:29;;;;;;;7.78;1.62;;;12.70;99.90;;;;;;7338260;32;20153;-57
2022/11/02 03:57:45;;;;;;;10.82;1.92;;;12.70;99.90;;;;;;7302873;32;20164;-57
2022/11/02 04:01:49;;;;;;;5.82;1.00;;;12.60;99.90;;;;;;7345647;32;20197;-57
2022/11/02 04:05:51;;;;;;;8.25;1.30;;;12.60;99.90;;;;;;7346294;32;20580;-58
2022/11/02 04:09:53;;;;;;;12.60;1.52;;;12.70;99.90;;;;;;7336606;32;20201;-57
2022/11/02 04:26:56;;;;;;;9.25;1.70;;;12.70;99.90;;;;;;7338844;32;20107;-58
2022/11/02 04:31:00;;;;;;;5.45;1.05;;;12.70;99.90;;;;;;7335972;32;20111;-57
2022/11/02 04:35:03;;;;;;;8.80;1.52;;;12.60;99.90;;;;;;7343211;32;20583;-57
2022/11/02 04:39:05;;;;;;;7.07;1.37;;;12.50;99.90;;;;;;7343662;32;20222;-57
2022/11/02 04:43:07;;;;;;;9.13;1.33;;;12.50;99.90;;;;;;7340513;32;20194;-57
2022/11/02 04:47:08;;;;;;;9.38;1.87;;;12.40;99.90;;;;;;7340205;32;20149;-57
2022/11/02 04:51:10;;;;;;;12.37;1.60;;;12.40;99.90;;;;;;7345738;32;20104;-57
2022/11/02 04:55:12;;;;;;;8.05;1.30;;;12.50;99.90;;;;;;7336674;32;20186;-57
2022/11/02 04:59:13;;;;;;;8.35;1.50;;;12.40;99.90;;;;;;7341868;32;20133;-58
2022/11/02 05:03:15;;;;;;;9.13;1.50;;;12.50;99.90;;;;;;7351265;32;20236;-58
2022/11/02 05:07:16;;;;;;;8.23;1.40;;;12.50;99.90;;;;;;7347356;32;20130;-57
2022/11/02 05:11:18;;;;;;;8.73;1.52;;;12.50;99.90;;;;;;7341461;32;20186;-57
2022/11/02 05:15:20;;;;;;;10.20;1.00;;;12.50;99.90;;;;;;7339318;32;20583;-57
2022/11/02 05:19:22;;;;;;;9.70;1.52;;;12.50;99.90;;;;;;7353757;32;20190;-57
2022/11/02 05:23:24;;;;;;;10.52;1.48;;;12.50;99.90;;;;;;7353932;32;20118;-57
2022/11/02 05:27:26;;;;;;;13.55;1.70;;;12.50;99.90;;;;;;7350978;32;20100;-57
2022/11/02 05:31:27;;;;;;;10.20;1.70;;;12.60;99.90;;;;;;7349538;32;20107;-57
2022/11/02 05:35:29;;;;;;;10.00;1.52;;;12.60;99.90;;;;;;7350646;32;20210;-58
2022/11/02 05:39:30;;;;;;;12.18;1.27;;;12.50;99.90;;;;;;7349576;32;20574;-57
2022/11/02 05:43:32;;;;;;;12.37;1.50;;;12.50;99.90;;;;;;7352460;32;20146;-57
2022/11/02 05:47:34;;;;;;;12.52;1.70;;;12.50;99.90;;;;;;7348467;32;20195;-58
2022/11/02 05:51:35;;;;;;;9.73;1.50;;;12.50;99.90;;;;;;7353050;32;20121;-57
2022/11/02 05:55:37;;;;;;;10.23;1.42;;;12.50;99.90;;;;;;7345675;32;20114;-57
2022/11/02 05:59:39;;;;;;;14.20;1.95;;;12.40;99.90;;;;;;7341668;32;20516;-58
2022/11/02 06:03:44;;;;;;;11.32;2.30;;;12.30;99.90;;;;;;7346340;32;20852;-58
2022/11/02 06:08:00;;;;;;;10.40;1.65;;;12.20;99.90;;;;;;7356485;32;20125;-58
2022/11/02 06:12:02;;;;;;;10.75;1.50;;;12.20;99.90;;;;;;7349830;32;20532;-57
2022/11/02 06:16:06;;;;;;;8.68;1.52;;;12.10;99.90;;;;;;7353348;32;20138;-58
2022/11/02 06:20:08;;;;;;;14.25;1.90;;;12.10;99.90;;;;;;7353434;32;20126;-58
2022/11/02 06:24:10;;;;;;;14.43;1.58;;;12.00;99.90;;;;;;7352662;32;20102;-57
2022/11/02 06:28:12;;;;;;;13.57;1.77;;;12.00;99.90;;;;;;7344595;32;20246;-58
2022/11/02 06:32:13;;;;;;;12.48;1.58;;;11.90;99.90;;;;;;7345367;32;20120;-67
2022/11/02 06:36:15;;;;;;;14.30;2.70;;;11.90;99.90;;;;;;7348160;32;20122;-65
2022/11/02 06:40:17;;;;;;;13.10;2.00;;;11.90;99.90;;;;;;7342789;32;20267;-63
2022/11/02 06:44:24;;;;;;;8.65;1.17;;;11.80;99.90;;;;;;7344990;32;20099;-62
2022/11/02 06:48:27;;;;;;;14.87;1.55;;;11.90;99.90;;;;;;7341334;32;20108;-62
2022/11/02 06:52:45;;;;;;;13.18;1.60;;;11.90;99.90;;;;;;7346550;32;20114;-62
2022/11/02 06:56:47;;;;;;;10.27;1.40;;;11.90;99.90;;;;;;7346217;32;20095;-62
2022/11/02 07:00:49;;;;;;;13.02;1.73;;;11.90;99.90;;;;;;7349938;32;20107;-62
2022/11/02 07:04:51;;;;;;;10.57;1.90;;;12.00;99.90;;;;;;7354642;32;20222;-63
2022/11/02 07:08:53;;;;;;;14.30;2.03;;;12.10;99.90;;;;;;7351000;32;20194;-62
2022/11/02 07:12:56;;;;;;;10.20;2.05;;;12.10;99.90;;;;;;7343599;32;20145;-62
2022/11/02 07:16:58;;;;;;;14.75;2.08;;;12.20;99.90;;;;;;7344334;32;20145;-63
2022/11/02 07:21:01;;;;;;;5.80;1.35;;;12.20;99.90;;;;;;7353080;32;20123;-63
2022/11/02 07:25:03;;;;;;;9.60;1.45;;;12.20;99.90;;;;;;7350396;32;20233;-62
2022/11/02 07:29:05;;;;;;;11.43;1.50;;;12.20;99.90;;;;;;7351518;32;20248;-61
2022/11/02 07:33:09;;;;;;;13.25;2.05;;;12.30;99.90;;;;;;7357841;32;20130;-62
2022/11/02 07:37:10;;;;;;;12.68;1.42;;;12.20;99.90;;;;;;7349578;32;20121;-62
2022/11/02 07:41:12;;;;;;;10.57;1.62;;;12.20;99.90;;;;;;7355701;32;20209;-62
2022/11/02 07:45:14;;;;;;;15.18;1.92;;;12.20;99.90;;;;;;7348757;32;20102;-61
2022/11/02 07:49:15;;;;;;;10.10;1.65;;;12.20;99.90;;;;;;7349289;32;20121;-62
2022/11/02 07:53:22;;;;;;;6.83;1.50;;;12.20;99.90;;;;;;7349283;32;20587;-62
2022/11/02 07:57:23;;;;;;;9.30;1.50;;;12.20;99.90;;;;;;7346797;32;20120;-61
2022/11/02 08:01:25;;;;;;;13.45;1.55;;;12.20;99.90;;;;;;7345287;32;20122;-62
2022/11/02 08:05:28;;;;;;;10.07;1.52;;;12.10;99.90;;;;;;7348306;32;20133;-62
2022/11/02 08:09:30;;;;;;;13.07;1.52;;;12.10;99.90;;;;;;7350732;32;20103;-61
2022/11/02 08:13:32;;;;;;;13.07;2.35;;;12.10;99.90;;;;;;7351832;32;20122;-61
2022/11/02 08:17:34;;;;;;;13.77;1.90;;;12.10;99.90;;;;;;7347302;32;20198;-62
2022/11/02 08:21:35;;;;;;;10.63;1.48;;;12.20;99.90;;;;;;7349516;32;20123;-63
2022/11/02 08:25:38;;;;;;;14.68;1.77;;;12.30;99.90;;;;;;7354113;32;20232;-61
2022/11/02 08:29:40;;;;;;;19.08;1.87;;;12.30;99.90;;;;;;7345652;32;20112;-62
2022/11/02 08:33:43;;;;;;;11.75;1.95;;;12.30;99.90;;;;;;7348613;32;20164;-61
2022/11/02 08:37:44;;;;;;;12.65;1.77;;;12.40;99.90;;;;;;7354154;32;20141;-61
2022/11/02 08:41:46;;;;;;;14.15;1.65;;;12.50;99.90;;;;;;7353436;32;20723;-62
2022/11/02 08:45:48;;;;;;;8.68;1.50;;;12.70;99.90;;;;;;7342531;32;20107;-62
2022/11/02 08:50:10;;;;;;;13.20;2.03;;;12.80;99.90;;;;;;7353802;32;20118;-62
2022/11/02 08:54:12;;;;;;;11.50;1.30;;;12.90;99.90;;;;;;7348861;32;20092;-62
2022/11/02 08:58:13;;;;;;;9.85;1.40;;;13.00;99.90;;;;;;7340324;32;20106;-62
2022/11/02 09:02:16;;;;;;;11.55;2.08;;;13.10;99.90;;;;;;7350908;32;20153;-62
2022/11/02 09:06:18;;;;;;;12.90;2.15;;;13.20;99.90;;;;;;7349555;32;20100;-62
2022/11/02 09:10:19;;;;;;;11.20;1.85;;;13.40;99.90;;;;;;7352309;32;20103;-62
2022/11/02 09:14:21;;;;;;;9.65;1.33;;;13.40;99.90;;;;;;7351546;32;20122;-63
2022/11/02 09:18:23;;;;;;;11.75;1.90;;;13.20;99.90;;;;;;7350861;32;20202;-62
2022/11/02 09:22:25;;;;;;;16.52;1.98;;;13.20;99.90;;;;;;7352634;32;20134;-63
2022/11/02 09:26:27;;;;;;;13.25;1.85;;;13.40;99.90;;;;;;7344366;32;20799;-59
2022/11/02 09:30:29;;;;;;;10.75;2.03;;;13.70;99.90;;;;;;7350511;32;20150;-63
2022/11/02 09:34:30;;;;;;;10.00;1.37;;;13.80;99.90;;;;;;7347508;32;20115;-62
2022/11/02 09:38:32;;;;;;;8.68;1.77;;;13.70;99.90;;;;;;7350621;32;20107;-62
2022/11/02 09:42:49;;;;;;;13.35;2.20;;;13.50;99.90;;;;;;7347211;32;20373;-62
2022/11/02 09:46:51;;;;;;;10.82;1.52;;;13.70;99.90;;;;;;7355007;32;20717;-63
2022/11/02 09:51:24;;;;;;;10.02;1.77;;;14.10;99.90;;;;;;7353535;32;20605;-61
2022/11/02 09:55:30;;;;;;;9.63;2.15;;;14.10;99.90;;;;;;7350671;32;20134;-61
2022/11/02 09:59:32;;;;;;;9.95;1.62;;;14.10;99.90;;;;;;7352318;32;20542;-61
2022/11/02 10:04:13;;;;;;;13.48;2.03;;;14.00;99.90;;;;;;7352461;32;20199;-61
2022/11/02 10:08:45;;;;;;;14.40;2.00;;;14.00;99.90;;;;;;7340415;32;20108;-61
2022/11/02 10:12:53;;;;;;;12.18;1.50;;;14.00;99.90;;;;;;7358471;32;20111;-61
2022/11/02 10:17:16;;;;;;;12.68;1.92;;;14.10;99.90;;;;;;7351688;32;20287;-63
2022/11/02 10:21:20;;;;;;;8.48;1.23;;;14.10;99.90;;;;;;7359254;32;20149;-61
2022/11/02 10:25:23;;;;;;;11.43;1.60;;;14.10;99.90;;;;;;7355733;32;20115;-62
2022/11/02 10:29:45;;;;;;;12.07;1.40;;;14.10;99.90;;;;;;7354637;32;20111;-61
2022/11/02 10:33:47;;;;;;;10.40;1.55;;;14.00;99.90;;;;;;7353885;32;20554;-61
2022/11/02 10:38:08;;;;;;;11.38;1.77;;;13.90;99.90;;;;;;7347488;32;20120;-61
2022/11/02 10:42:41;;;;;;;9.25;1.25;;;14.10;99.90;;;;;;7355992;32;20214;-63
2022/11/02 10:46:53;;;;;;;9.88;1.20;;;14.20;99.90;;;;;;7347335;32;20550;-61
2022/11/02 10:51:05;;;;;;;10.02;1.58;;;14.20;99.90;;;;;;7355033;32;20134;-61
2022/11/02 10:55:16;;;;;;;8.52;1.50;;;14.20;99.90;;;;;;7346571;32;20130;-61
2022/11/02 10:59:22;;;;;;;7.85;0.95;;;14.20;99.90;;;;;;7346930;32;20146;-61
2022/11/02 11:03:24;;;;;;;9.68;1.80;;;14.20;99.90;;;;;;7349786;32;20138;-63
2022/11/02 11:07:26;;;;;;;5.95;1.20;;;14.20;99.90;;;;;;7348636;32;20161;-63
2022/11/02 11:11:34;;;;;;;13.85;1.85;;;14.30;99.90;;;;;;7351810;32;20133;-61
2022/11/02 11:15:36;;;;;;;10.70;1.33;;;14.30;99.90;;;;;;7342896;32;20095;-61
2022/11/02 11:19:55;;;;;;;13.15;1.83;;;14.30;99.90;;;;;;7350993;32;20194;-62
2022/11/02 11:24:30;;;;;;;11.70;1.25;;;14.40;99.90;;;;;;7346675;32;20107;-62
2022/11/02 11:28:36;;;;;;;7.30;1.62;;;14.40;99.90;;;;;;7345108;32;20139;-61
2022/11/02 11:32:38;;;;;;;9.85;0.90;;;14.40;99.90;;;;;;7351854;32;20112;-61
2022/11/02 11:36:40;;;;;;;10.00;1.25;;;14.30;99.90;;;;;;7350766;32;20127;-62
2022/11/02 11:40:52;;;;;;;10.13;1.30;;;14.30;99.90;;;;;;7337580;32;20492;-61
2022/11/02 11:45:05;;;;;;;9.20;1.25;;;14.60;99.90;;;;;;7347118;32;20210;-61
2022/11/02 11:49:21;;;;;;;7.47;1.50;;;14.60;99.90;;;;;;7350843;32;20157;-62
2022/11/02 11:53:37;;;;;;;9.05;1.83;;;14.50;99.90;;;;;;7352179;32;20209;-61
2022/11/02 11:57:39;;;;;;;10.70;1.80;;;14.60;99.90;;;;;;7345955;32;20726;-61
2022/11/02 12:01:40;;;;;;;9.20;1.45;;;14.50;99.90;;;;;;7349340;32;20139;-62
2022/11/02 12:05:59;;;;;;;10.48;1.85;;;14.50;99.90;;;;;;7346015;32;20217;-62
2022/11/02 12:10:30;;;;;;;10.60;1.52;;;14.60;99.90;;;;;;7349955;32;20145;-62
2022/11/02 12:14:50;;;;;;;7.18;1.65;;;14.50;99.90;;;;;;7349616;32;20126;-62
2022/11/02 12:19:11;;;;;;;15.48;1.95;;;14.70;99.90;;;;;;7352678;32;20141;-64
2022/11/02 12:23:37;;;;;;;11.93;1.40;;;14.80;99.90;;;;;;7351536;32;20248;-62
2022/11/02 12:28:00;;;;;;;10.32;1.40;;;14.80;99.90;;;;;;7348772;32;20111;-62
2022/11/02 12:32:22;;;;;;;10.25;1.62;;;14.80;99.90;;;;;;7351963;32;20119;-62
2022/11/02 12:36:44;;;;;;;10.10;1.48;;;14.80;99.90;;;;;;7347603;32;20266;-62
2022/11/02 12:41:11;;;;;;;9.43;2.00;;;15.00;99.90;;;;;;7343851;32;20429;-61
2022/11/02 12:45:21;;;;;;;;;;;15.20;99.90;;;;;;7344968;32;20118;-61
2022/11/02 12:49:52;;;;;;;9.98;1.60;;;15.30;99.90;;;;;;7353179;32;20007;-61
2022/11/02 12:53:59;;;;;;;12.18;1.60;;;15.30;99.90;;;;;;7350126;32;20232;-62
2022/11/02 12:58:12;;;;;;;8.98;1.65;;;15.20;99.90;;;;;;7347117;32;20130;-62
2022/11/02 13:02:46;;;;;;;11.50;1.75;;;15.10;99.90;;;;;;7351937;32;20234;-61
2022/11/02 13:06:58;;;;;;;14.52;1.52;;;15.00;99.90;;;;;;7332010;32;20198;-61
2022/11/02 13:11:06;;;;;;;10.77;1.80;;;15.00;99.90;;;;;;7342648;32;20130;-63
2022/11/02 13:15:17;;;;;;;10.70;1.92;;;14.80;99.90;;;;;;7334643;32;20744;-62
2022/11/02 13:19:47;;;;;;;11.12;1.62;;;14.90;99.90;;;;;;7338755;32;20158;-62
2022/11/02 13:23:52;;;;;;;7.12;1.65;;;15.10;99.90;;;;;;7339978;32;20134;-62
2022/11/02 13:28:02;;;;;;;6.07;1.50;;;15.80;99.90;;;;;;7338781;32;20223;-62
2022/11/02 13:32:28;;;;;;;8.93;1.85;;;16.40;99.90;;;;;;7336741;32;20191;-64
2022/11/02 13:36:38;;;;;;;10.65;1.80;;;16.60;99.90;;;;;;7347980;32;20202;-62
2022/11/02 13:40:46;;;;;;;12.05;2.05;;;16.90;99.90;;;;;;7345948;32;20517;-61
2022/11/02 13:45:33;;;;;;;10.07;1.95;;;17.00;99.90;;;;;;7351702;32;20472;-61
2022/11/02 13:49:47;;;;;;;10.95;1.83;;;16.80;99.90;;;;;;7338587;32;20142;-63
2022/11/02 13:53:54;;;;;;;8.88;1.65;;;16.30;99.90;;;;;;7336135;32;20515;-62
2022/11/02 13:57:58;;;;;;;11.75;1.52;;;16.10;99.90;;;;;;7333508;32;20169;-63
2022/11/02 14:02:02;;;;;;;13.23;1.85;;;16.00;99.90;;;;;;7340492;32;20186;-62
2022/11/02 14:06:11;;;;;;;8.13;1.33;;;16.40;99.90;;;;;;7335861;32;20640;-62
2022/11/02 14:10:17;;;;;;;9.93;1.20;;;17.00;99.90;;;;;;7341173;32;20127;-62
2022/11/02 14:14:23;;;;;;;13.90;1.98;;;16.60;99.90;;;;;;7341762;32;20605;-61
2022/11/02 14:18:29;;;;;;;8.98;1.30;;;16.10;99.90;;;;;;7341447;32;20199;-61
2022/11/02 14:22:31;;;;;;;10.95;1.58;;;15.70;99.90;;;;;;7334712;32;20793;-62
2022/11/02 14:26:53;;;;;;;10.68;1.33;;;15.30;99.90;;;;;;7331428;32;21387;-61
2022/11/02 14:31:04;;;;;;;14.75;1.65;;;15.30;99.90;;;;;;7340120;32;20234;-62
2022/11/02 14:35:17;;;;;;;13.02;1.75;;;15.10;99.90;;;;;;7335782;32;20275;-62
2022/11/02 14:39:40;;;;;;;15.27;1.45;;;15.00;99.90;;;;;;7339673;32;20134;-61
2022/11/02 14:43:56;;;;;;;14.52;2.22;;;14.80;99.90;;;;;;7343804;32;20257;-62
2022/11/02 14:48:01;;;;;;;13.90;1.75;;;14.80;99.90;;;;;;7340245;32;20135;-62
2022/11/02 14:52:14;;;;;;;11.05;1.87;;;14.60;99.90;;;;;;7343110;32;20233;-61
2022/11/02 14:56:16;;;;;;;8.98;1.40;;;14.50;99.90;;;;;;7349480;32;20104;-63
2022/11/02 15:00:20;;;;;;;12.02;1.87;;;14.50;99.90;;;;;;7333704;32;20237;-59
2022/11/02 15:04:24;;;;;;;11.68;1.70;;;14.50;99.90;;;;;;7339366;32;20988;-58
2022/11/02 15:08:48;;;;;;;8.63;1.58;;;14.50;99.90;;;;;;7341982;32;20754;-62
2022/11/02 15:13:09;;;;;;;9.77;1.73;;;14.40;99.90;;;;;;7349448;32;20142;-62
2022/11/02 15:17:17;;;;;;;13.23;2.25;;;14.20;99.90;;;;;;7334941;32;20118;-62
2022/11/02 15:21:19;;;;;;;9.52;1.75;;;13.90;99.90;;;;;;7340469;32;20129;-62
2022/11/02 15:25:35;;;;;;;12.73;1.80;;;13.70;99.90;;;;;;7347106;32;20594;-62
2022/11/02 15:29:42;;;;;;;8.50;1.27;;;13.60;99.90;;;;;;7343890;32;20112;-62
2022/11/02 15:33:53;;;;;;;12.63;1.58;;;13.50;99.90;;;;;;7346055;32;20580;-61
2022/11/02 15:38:00;;;;;;;11.02;1.60;;;13.40;99.90;;;;;;7334403;32;20236;-63
2022/11/02 15:42:18;;;;;;;11.88;2.40;;;13.20;99.90;;;;;;7341228;32;20239;-62
2022/11/02 15:46:29;;;;;;;10.25;1.73;;;13.00;99.90;;;;;;7334306;32;20619;-63
2022/11/02 15:50:48;;;;;;;11.35;1.80;;;12.70;99.90;;;;;;7331662;32;20190;-63
2022/11/02 15:54:56;;;;;;;14.13;1.42;;;12.60;99.90;;;;;;7345910;32;20130;-62
2022/11/02 15:59:16;;;;;;;9.27;1.50;;;12.40;99.90;;;;;;7343900;32;20520;-60
2022/11/02 16:03:19;;;;;;;11.63;1.70;;;12.20;99.90;;;;;;7343343;32;20729;-62
2022/11/02 16:07:22;;;;;;;11.27;1.50;;;12.00;99.90;;;;;;7347553;32;20138;-62
2022/11/02 16:11:43;;;;;;;10.90;1.90;;;11.80;99.90;;;;;;7355452;32;20223;-61
2022/11/02 16:15:47;;;;;;;12.00;1.70;;;11.70;99.90;;;;;;7352124;32;20896;-58
2022/11/02 16:19:49;;;;;;;16.95;3.50;;;11.60;99.90;;;;;;7354397;32;20149;-58
2022/11/02 16:23:55;;;;;;;16.40;3.03;;;11.50;99.90;;;;;;7355124;32;20111;-59
2022/11/02 16:28:12;;;;;;;9.07;2.10;;;11.30;99.90;;;;;;7348136;32;20474;-59
2022/11/02 16:32:14;;;;;;;9.97;2.43;;;11.10;99.90;;;;;;7349556;32;20100;-59
2022/11/02 16:36:19;;;;;;;10.57;1.98;;;11.00;99.90;;;;;;7343584;32;20115;-58
2022/11/02 16:40:21;;;;;;;11.30;2.95;;;10.90;99.90;;;;;;7342705;32;20165;-59
2022/11/02 16:44:26;;;;;;;14.60;2.37;;;10.70;99.90;;;;;;7352646;32;20540;-59
2022/11/02 16:48:31;;;;;;;15.80;2.45;;;10.60;99.90;;;;;;7347724;32;20107;-59
2022/11/02 16:52:35;;;;;;;13.23;2.20;;;10.40;99.90;;;;;;7352190;32;20121;-59
2022/11/02 16:56:37;;;;;;;12.52;2.53;;;10.30;99.90;;;;;;7353200;32;20620;-59
2022/11/02 17:00:51;;;;;;;8.40;2.37;;;10.10;99.90;;;;;;7353619;32;20537;-58
2022/11/02 17:04:56;;;;;;;10.20;2.47;;;10.00;99.90;;;;;;7356050;32;20194;-60
2022/11/02 17:09:05;;;;;;;10.52;3.22;;;10.00;99.90;;;;;;7351036;32;20712;-59
2022/11/02 17:13:14;;;;;;;8.80;2.25;;;9.90;99.90;;;;;;7353067;32;20138;-59
2022/11/02 17:17:22;;;;;;;14.23;2.30;;;9.80;99.90;;;;;;7352607;32;20539;-60
2022/11/02 17:21:27;;;;;;;12.27;1.67;;;9.90;99.90;;;;;;7352344;32;20208;-62
2022/11/02 17:25:39;;;;;;;12.98;1.98;;;10.20;99.90;;;;;;7358586;32;20130;-61
2022/11/02 17:29:40;;;;;;;10.38;1.75;;;10.40;99.90;;;;;;7348071;32;20566;-60
2022/11/02 17:33:43;;;;;;;12.52;1.75;;;10.40;99.90;;;;;;7353058;32;20195;-60
2022/11/02 17:37:44;;;;;;;10.50;1.73;;;10.40;99.90;;;;;;7357543;32;20121;-60
2022/11/02 17:46:14;;;;;;;13.23;1.83;;;10.60;99.90;;;;;;7355264;32;20107;-60
2022/11/02 17:50:16;;;;;;;8.50;1.48;;;10.70;99.90;;;;;;7350869;32;20631;-60
2022/11/02 17:54:17;;;;;;;5.68;1.30;;;10.80;99.90;;;;;;7352554;32;20119;-60
2022/11/02 17:58:19;;;;;;;11.43;1.50;;;10.70;99.90;;;;;;7341158;32;20110;-59
2022/11/02 18:02:21;;;;;;;8.82;1.77;;;10.80;99.90;;;;;;7347564;32;20581;-60
2022/11/02 18:06:23;;;;;;;5.50;1.33;;;10.90;99.90;;;;;;7343991;32;20263;-60
2022/11/02 18:10:29;;;;;;;8.52;1.65;;;10.90;99.90;;;;;;7351170;32;20103;-60
2022/11/02 18:14:30;;;;;;;6.70;1.52;;;10.90;99.90;;;;;;7352101;32;20115;-60
2022/11/02 18:18:32;;;;;;;8.23;1.42;;;10.80;99.90;;;;;;7349882;32;20205;-60
2022/11/02 18:22:34;;;;;;;8.10;1.58;;;10.80;99.90;;;;;;7353790;32;20198;-59
2022/11/02 18:26:36;;;;;;;8.98;1.52;;;10.70;99.90;;;;;;7345648;32;20139;-60
2022/11/02 18:30:41;;;;;;;8.05;1.30;;;10.80;99.90;;;;;;7351084;32;20519;-59
2022/11/02 18:34:43;;;;;;;5.80;1.58;;;10.80;99.90;;;;;;7347054;32;20367;-61
2022/11/02 18:38:45;;;;;;;7.03;1.60;;;10.80;99.90;;;;;;7347802;32;20780;-62
2022/11/02 18:42:47;;;;;;;13.65;2.00;;;10.80;99.90;;;;;;7353178;32;20511;-63
2022/11/02 18:46:48;;;;;;;5.72;1.60;;;10.80;99.90;;;;;;7343967;32;20479;-62
2022/11/02 18:50:50;;;;;;;10.75;1.85;;;10.80;99.90;;;;;;7355617;32;20148;-60
2022/11/02 18:54:52;;;;;;;9.02;1.60;;;11.00;99.90;;;;;;7344764;32;20099;-62
2022/11/02 18:58:54;;;;;;;6.07;1.62;;;10.90;99.90;;;;;;7351628;32;20258;-62
2022/11/02 19:02:56;;;;;;;10.35;2.12;;;10.90;99.90;;;;;;7346085;32;20290;-60
2022/11/02 19:11:18;;;;;;;11.38;1.60;;;10.90;99.90;;;;;;7351813;32;20179;-59
2022/11/02 19:15:20;;;;;;;12.18;1.90;;;10.90;99.90;;;;;;7354835;32;20129;-59
2022/11/02 19:19:21;;;;;;;7.35;1.23;;;10.90;99.90;;;;;;7348840;32;20118;-57
2022/11/02 19:23:23;;;;;;;6.45;1.60;;;11.10;99.90;;;;;;7352751;32;20123;-60
2022/11/02 19:27:25;;;;;;;10.55;2.17;;;11.00;99.90;;;;;;7355179;32;20511;-61
2022/11/02 19:31:26;;;;;;;8.90;2.25;;;10.80;99.90;;;;;;7354610;32;20590;-61
2022/11/02 19:35:28;;;;;;;8.02;1.60;;;10.70;99.90;;;;;;7348924;32;20198;-62
2022/11/02 19:39:30;;;;;;;9.88;2.35;;;10.70;99.90;;;;;;7352697;32;20170;-60
2022/11/02 19:43:32;;;;;;;10.02;1.85;;;10.60;99.90;;;;;;7349826;32;20516;-60
2022/11/02 19:47:33;;;;;;;11.00;2.08;;;10.50;99.90;;;;;;7345566;32;20202;-61
2022/11/02 19:51:35;;;;;;;12.82;3.12;;;10.40;99.90;;;;;;7331685;32;20812;-62
2022/11/02 19:55:37;;;;;;;13.43;2.50;;;10.40;99.90;;;;;;7353205;32;20137;-62
2022/11/02 19:59:38;;;;;;;13.73;2.47;;;10.40;99.90;;;;;;7350433;32;20194;-62
2022/11/02 20:03:41;;;;;;;9.25;2.47;;;10.30;99.90;;;;;;7349911;32;20847;-63
2022/11/02 20:07:42;;;;;;;13.10;3.12;;;10.30;99.90;;;;;;7350332;32;20491;-61
2022/11/02 20:11:45;;;;;;;7.72;2.35;;;10.30;99.90;;;;;;7352010;32;20202;-61
2022/11/02 20:15:47;;;;;;;7.50;2.30;;;10.20;99.90;;;;;;7353828;32;20198;-61
2022/11/02 20:19:49;;;;;;;10.32;2.62;;;10.20;99.90;;;;;;7352408;32;20139;-61
2022/11/02 20:23:51;;;;;;;9.88;2.10;;;10.20;99.90;;;;;;7350656;32;20804;-60
2022/11/02 20:27:53;;;;;;;10.43;2.45;;;10.30;99.90;;;;;;7345907;32;20237;-59
2022/11/02 20:31:54;;;;;;;14.80;2.55;;;10.30;99.90;;;;;;7340229;32;20148;-60
2022/11/02 20:35:56;;;;;;;13.57;2.87;;;10.20;99.90;;;;;;7337394;32;20209;-60
2022/11/02 20:39:57;;;;;;;11.63;2.30;;;10.20;99.90;;;;;;7338950;32;20252;-63
2022/11/02 20:44:00;;;;;;;11.02;2.37;;;10.20;99.90;;;;;;7349782;32;20574;-59
2022/11/02 20:48:02;;;;;;;11.70;2.45;;;10.20;99.90;;;;;;7346244;32;20111;-59
2022/11/02 20:52:04;;;;;;;13.98;2.10;;;10.10;99.90;;;;;;7350400;32;20853;-60
2022/11/02 20:56:06;;;;;;;9.55;2.22;;;10.10;99.90;;;;;;7352300;32;20221;-59
2022/11/02 21:00:09;;;;;;;10.85;2.87;;;10.20;99.90;;;;;;7339960;32;20416;-60
2022/11/02 21:04:11;;;;;;;9.60;2.15;;;10.10;99.90;;;;;;7352833;32;20550;-60
2022/11/02 21:08:23;;;;;;;11.80;2.22;;;10.20;99.90;;;;;;7343875;32;20187;-61
2022/11/02 21:16:45;;;;;;;13.30;2.37;;;10.20;99.90;;;;;;7347133;32;20166;-60
2022/11/02 21:20:47;;;;;;;10.63;2.33;;;10.20;99.90;;;;;;7347583;32;20496;-63
2022/11/02 21:24:49;;;;;;;12.65;2.62;;;10.30;99.90;;;;;;7346728;32;20519;-60
2022/11/02 21:28:51;;;;;;;7.78;1.77;;;10.40;99.90;;;;;;7344814;32;20178;-62
2022/11/02 21:32:53;;;;;;;9.68;2.35;;;10.40;99.90;;;;;;7347388;32;20841;-61
2022/11/02 21:36:55;;;;;;;10.07;1.67;;;10.50;99.90;;;;;;7342413;32;20146;-61
2022/11/02 21:41:01;;;;;;;11.60;2.25;;;10.40;99.90;;;;;;7352011;32;20202;-59